createdAt,value
2018-12-18T00:00:16.598Z,15.4
2018-12-18T00:01:18.785Z,15.5
2018-12-18T00:02:21.196Z,15.3
2018-12-18T00:03:23.626Z,15.3
2018-12-18T00:04:26.063Z,15.4
2018-12-18T00:05:28.483Z,15.3
2018-12-18T00:06:30.630Z,15.4
2018-12-18T00:07:33.058Z,15.3
2018-12-18T00:08:35.488Z,15.4
2018-12-18T00:09:37.911Z,15.4
2018-12-18T00:10:40.340Z,15.3
2018-12-18T00:11:42.502Z,15.4
2018-12-18T00:12:44.926Z,15.5
2018-12-18T00:13:47.349Z,15.3
2018-12-18T00:14:49.778Z,15.3
2018-12-18T00:15:52.210Z,15.3
2018-12-18T00:16:54.633Z,15.4
2018-12-18T00:17:56.514Z,15.4
2018-12-18T00:18:58.378Z,15.4
2018-12-18T00:20:00.797Z,15.6
2018-12-18T00:21:03.219Z,15.5
2018-12-18T00:22:05.639Z,15.4
2018-12-18T00:23:08.058Z,15.3
2018-12-18T00:24:10.481Z,15.4
2018-12-18T00:25:12.906Z,15.3
2018-12-18T00:26:15.332Z,15.5
2018-12-18T00:27:17.765Z,15.4
2018-12-18T00:28:19.624Z,15.2
2018-12-18T00:29:22.043Z,15.4
2018-12-18T00:30:24.188Z,15.3
2018-12-18T00:31:26.348Z,15.4
2018-12-18T00:32:28.770Z,15.4
2018-12-18T00:33:31.244Z,15.4
2018-12-18T00:34:33.678Z,15.4
2018-12-18T00:35:36.104Z,15.4
2018-12-18T00:36:38.540Z,15.4
2018-12-18T00:37:40.987Z,15.6
2018-12-18T00:38:43.414Z,15.7
2018-12-18T00:39:45.832Z,15.4
2018-12-18T00:40:48.256Z,15.7
2018-12-18T00:41:50.415Z,15.5
2018-12-18T00:42:52.548Z,15.3
2018-12-18T00:43:54.705Z,15.5
2018-12-18T00:44:57.128Z,15.6
2018-12-18T00:45:59.337Z,15.5
2018-12-18T00:47:01.488Z,15.6
2018-12-18T00:48:03.657Z,15.6
2018-12-18T00:49:06.089Z,15.7
2018-12-18T00:50:08.514Z,15.6
2018-12-18T00:51:10.932Z,15.6
2018-12-18T00:52:12.837Z,15.6
2018-12-18T00:53:15.250Z,15.7
2018-12-18T00:54:17.406Z,15.5
2018-12-18T00:55:19.555Z,15.7
2018-12-18T00:56:21.978Z,15.6
2018-12-18T00:57:23.854Z,15.8
2018-12-18T00:58:26.289Z,15.5
2018-12-18T00:59:28.713Z,15.6
2018-12-18T01:00:31.155Z,15.5
2018-12-18T01:01:33.032Z,15.7
2018-12-18T01:02:35.176Z,15.7
2018-12-18T01:03:37.600Z,15.7
2018-12-18T01:04:40.031Z,15.7
2018-12-18T01:05:42.448Z,15.7
2018-12-18T01:06:44.880Z,15.8
2018-12-18T01:08:52.282Z,15.6
2018-12-18T01:09:54.425Z,15.7
2018-12-18T01:10:56.836Z,15.7
2018-12-18T01:11:59.260Z,15.8
2018-12-18T01:13:01.680Z,15.6
2018-12-18T01:14:03.824Z,15.8
2018-12-18T01:15:06.251Z,15.7
2018-12-18T01:16:08.420Z,15.8
2018-12-18T01:17:10.867Z,15.7
2018-12-18T01:18:12.723Z,15.7
2018-12-18T01:19:15.151Z,15.8
2018-12-18T01:20:17.023Z,15.8
2018-12-18T01:21:19.444Z,15.7
2018-12-18T01:22:21.650Z,15.8
2018-12-18T01:23:24.072Z,15.8
2018-12-18T01:24:26.497Z,15.7
2018-12-18T01:25:28.641Z,15.8
2018-12-18T01:26:31.065Z,15.7
2018-12-18T01:27:32.941Z,15.7
2018-12-18T01:28:35.070Z,15.8
2018-12-18T01:29:37.503Z,15.7
2018-12-18T01:30:39.649Z,15.8
2018-12-18T01:31:42.095Z,15.7
2018-12-18T01:32:44.500Z,15.8
2018-12-18T01:33:46.922Z,15.8
2018-12-18T01:34:48.769Z,15.8
2018-12-18T01:35:51.193Z,15.8
2018-12-18T01:36:53.337Z,15.8
2018-12-18T01:37:55.775Z,15.9
2018-12-18T01:38:57.921Z,15.8
2018-12-18T01:40:00.092Z,15.8
2018-12-18T01:41:02.512Z,15.8
2018-12-18T01:42:04.642Z,15.7
2018-12-18T01:43:06.504Z,15.8
2018-12-18T01:44:08.923Z,15.8
2018-12-18T01:45:10.782Z,15.8
2018-12-18T01:46:13.206Z,15.8
2018-12-18T01:47:15.330Z,15.8
2018-12-18T01:48:17.478Z,15.7
2018-12-18T01:49:19.632Z,15.8
2018-12-18T01:50:21.528Z,15.8
2018-12-18T01:51:23.954Z,15.7
2018-12-18T01:52:25.848Z,15.8
2018-12-18T01:53:27.979Z,15.9
2018-12-18T01:54:30.128Z,15.8
2018-12-18T01:55:32.290Z,15.8
2018-12-18T01:56:34.716Z,15.8
2018-12-18T01:57:37.143Z,15.8
2018-12-18T01:58:39.569Z,15.9
2018-12-18T01:59:41.986Z,15.8
2018-12-18T02:00:44.405Z,15.8
2018-12-18T02:01:46.828Z,15.8
2018-12-18T02:02:48.722Z,15.8
2018-12-18T02:03:51.138Z,15.8
2018-12-18T02:04:53.292Z,15.8
2018-12-18T02:05:55.716Z,15.8
2018-12-18T02:06:58.140Z,15.8
2018-12-18T02:08:00.030Z,15.8
2018-12-18T02:09:02.454Z,15.9
2018-12-18T02:10:04.912Z,15.8
2018-12-18T02:11:07.054Z,15.8
2018-12-18T02:12:09.222Z,15.8
2018-12-18T02:13:11.655Z,15.8
2018-12-18T02:14:13.792Z,15.8
2018-12-18T02:15:15.934Z,15.7
2018-12-18T02:16:18.356Z,15.8
2018-12-18T02:17:20.825Z,15.8
2018-12-18T02:18:23.245Z,15.8
2018-12-18T02:19:25.673Z,15.8
2018-12-18T02:20:27.550Z,15.9
2018-12-18T02:21:29.977Z,15.8
2018-12-18T02:22:32.398Z,15.9
2018-12-18T02:23:34.823Z,16
2018-12-18T02:24:37.244Z,15.8
2018-12-18T02:25:39.664Z,15.8
2018-12-18T02:26:41.829Z,15.9
2018-12-18T02:27:44.300Z,15.8
2018-12-18T02:28:46.141Z,15.8
2018-12-18T02:29:48.572Z,15.8
2018-12-18T02:30:51.000Z,15.8
2018-12-18T02:31:53.431Z,15.8
2018-12-18T02:32:55.844Z,15.8
2018-12-18T02:33:58.262Z,15.8
2018-12-18T02:35:00.433Z,15.8
2018-12-18T02:36:02.853Z,15.9
2018-12-18T02:37:05.001Z,15.8
2018-12-18T02:38:07.162Z,15.8
2018-12-18T02:39:09.592Z,15.8
2018-12-18T02:40:11.751Z,15.8
2018-12-18T02:41:14.178Z,15.9
2018-12-18T02:42:16.617Z,15.7
2018-12-18T02:43:18.230Z,15.9
2018-12-18T02:44:20.369Z,15.9
2018-12-18T02:45:22.527Z,15.8
2018-12-18T02:46:24.678Z,15.8
2018-12-18T02:47:27.121Z,15.8
2018-12-18T02:48:29.552Z,15.8
2018-12-18T02:49:31.980Z,15.9
2018-12-18T02:50:34.402Z,15.8
2018-12-18T02:51:36.831Z,15.9
2018-12-18T02:52:38.996Z,15.8
2018-12-18T02:53:40.869Z,15.8
2018-12-18T02:54:43.020Z,15.9
2018-12-18T02:55:45.448Z,16
2018-12-18T02:56:47.299Z,15.9
2018-12-18T02:57:49.734Z,15.9
2018-12-18T02:58:52.159Z,15.8
2018-12-18T02:59:54.286Z,15.8
2018-12-18T03:00:56.712Z,15.9
2018-12-18T03:01:59.135Z,15.9
2018-12-18T03:03:01.560Z,16.1
2018-12-18T03:04:03.702Z,15.9
2018-12-18T03:05:06.127Z,16
2018-12-18T03:06:08.553Z,15.9
2018-12-18T03:07:10.979Z,16
2018-12-18T03:08:13.129Z,15.9
2018-12-18T03:09:15.548Z,16
2018-12-18T03:10:17.973Z,15.9
2018-12-18T03:11:20.130Z,15.9
2018-12-18T03:12:22.289Z,15.9
2018-12-18T03:13:24.715Z,16
2018-12-18T03:14:26.867Z,15.8
2018-12-18T03:15:29.017Z,15.9
2018-12-18T03:16:31.453Z,15.9
2018-12-18T03:17:33.877Z,16
2018-12-18T03:18:36.425Z,15.8
2018-12-18T03:19:38.550Z,15.9
2018-12-18T03:20:40.982Z,15.9
2018-12-18T03:21:42.861Z,15.9
2018-12-18T03:22:45.292Z,16
2018-12-18T03:23:47.446Z,16.1
2018-12-18T03:24:49.349Z,15.9
2018-12-18T03:25:51.479Z,16
2018-12-18T03:26:53.639Z,16
2018-12-18T03:27:56.062Z,15.9
2018-12-18T03:28:58.314Z,16
2018-12-18T03:30:00.744Z,15.9
2018-12-18T03:31:03.181Z,15.9
2018-12-18T03:32:05.704Z,16
2018-12-18T03:33:07.588Z,16
2018-12-18T03:34:10.032Z,16.1
2018-12-18T03:35:12.193Z,16
2018-12-18T03:36:14.341Z,15.8
2018-12-18T03:37:16.229Z,16.2
2018-12-18T03:38:18.650Z,16.1
2018-12-18T03:39:20.813Z,15.8
2018-12-18T03:40:23.251Z,15.9
2018-12-18T03:41:25.693Z,16
2018-12-18T03:42:28.122Z,16.1
2018-12-18T03:43:30.552Z,15.9
2018-12-18T03:44:32.980Z,15.9
2018-12-18T03:45:35.122Z,16.1
2018-12-18T03:46:37.281Z,16
2018-12-18T03:47:39.705Z,16
2018-12-18T03:48:42.126Z,16
2018-12-18T03:49:44.019Z,15.9
2018-12-18T03:50:46.171Z,16.1
2018-12-18T03:51:48.588Z,16.1
2018-12-18T03:52:50.742Z,16
2018-12-18T03:53:53.170Z,16
2018-12-18T03:54:55.592Z,16.2
2018-12-18T03:55:57.743Z,16.1
2018-12-18T03:56:59.677Z,16.2
2018-12-18T03:58:01.889Z,15.9
2018-12-18T03:59:04.318Z,16
2018-12-18T04:00:06.457Z,15.9
2018-12-18T04:01:08.983Z,16.1
2018-12-18T04:02:11.401Z,16
2018-12-18T04:03:13.001Z,15.9
2018-12-18T04:04:15.432Z,16
2018-12-18T04:05:17.851Z,16.1
2018-12-18T04:06:20.282Z,16
2018-12-18T04:07:22.708Z,16
2018-12-18T04:08:25.143Z,16
2018-12-18T04:09:27.590Z,15.8
2018-12-18T04:10:30.021Z,16.1
2018-12-18T04:11:33.947Z,16
2018-12-18T04:12:36.399Z,16
2018-12-18T04:13:38.558Z,16.1
2018-12-18T04:14:40.191Z,16
2018-12-18T04:15:41.773Z,15.9
2018-12-18T04:16:44.192Z,16.1
2018-12-18T04:17:46.339Z,16
2018-12-18T04:18:48.536Z,16
2018-12-18T04:19:50.674Z,16
2018-12-18T04:20:53.115Z,16.1
2018-12-18T04:21:55.553Z,16
2018-12-18T04:22:57.970Z,16
2018-12-18T04:24:00.108Z,16
2018-12-18T04:25:02.583Z,16.1
2018-12-18T04:26:04.746Z,16
2018-12-18T04:27:07.159Z,16
2018-12-18T04:28:09.580Z,16
2018-12-18T04:29:12.013Z,16
2018-12-18T04:30:14.140Z,16
2018-12-18T04:31:16.561Z,16
2018-12-18T04:32:18.437Z,16.1
2018-12-18T04:33:20.852Z,16
2018-12-18T04:34:22.995Z,15.9
2018-12-18T04:35:25.141Z,16.1
2018-12-18T04:36:27.326Z,15.9
2018-12-18T04:37:29.192Z,15.9
2018-12-18T04:38:31.078Z,16
2018-12-18T04:39:33.518Z,16
2018-12-18T04:40:35.382Z,16
2018-12-18T04:41:37.800Z,15.9
2018-12-18T04:42:40.239Z,15.9
2018-12-18T04:43:42.841Z,16
2018-12-18T04:44:45.401Z,15.8
2018-12-18T04:45:47.849Z,16
2018-12-18T04:46:50.336Z,15.8
2018-12-18T04:47:52.795Z,16
2018-12-18T04:48:55.235Z,16
2018-12-18T04:49:57.704Z,15.9
2018-12-18T04:51:00.133Z,15.9
2018-12-18T04:52:02.573Z,15.8
2018-12-18T04:53:04.759Z,15.9
2018-12-18T04:54:07.223Z,16
2018-12-18T04:55:09.384Z,15.9
2018-12-18T04:56:10.964Z,15.8
2018-12-18T04:57:13.141Z,15.9
2018-12-18T04:58:15.566Z,15.9
2018-12-18T04:59:17.727Z,15.8
2018-12-18T05:00:19.903Z,15.9
2018-12-18T05:01:22.423Z,15.8
2018-12-18T05:02:24.626Z,15.8
2018-12-18T05:03:27.074Z,15.8
2018-12-18T05:04:29.208Z,15.9
2018-12-18T05:05:31.419Z,15.8
2018-12-18T05:06:33.855Z,15.8
2018-12-18T05:07:35.982Z,15.9
2018-12-18T05:08:37.558Z,15.8
2018-12-18T05:09:39.988Z,15.8
2018-12-18T05:10:42.151Z,15.8
2018-12-18T05:11:44.290Z,15.9
2018-12-18T05:12:46.426Z,15.8
2018-12-18T05:13:48.834Z,15.8
2018-12-18T05:14:50.991Z,15.8
2018-12-18T05:15:53.419Z,15.8
2018-12-18T05:16:55.843Z,15.8
2018-12-18T05:17:58.000Z,15.9
2018-12-18T05:19:00.424Z,15.8
2018-12-18T05:20:02.850Z,15.8
2018-12-18T05:21:05.278Z,15.8
2018-12-18T05:22:06.863Z,15.8
2018-12-18T05:23:09.014Z,15.8
2018-12-18T05:24:10.893Z,15.8
2018-12-18T05:25:13.318Z,15.9
2018-12-18T05:26:15.205Z,15.8
2018-12-18T05:27:17.630Z,15.8
2018-12-18T05:28:19.484Z,15.8
2018-12-18T05:29:21.906Z,15.8
2018-12-18T05:30:24.328Z,15.9
2018-12-18T05:31:26.480Z,15.9
2018-12-18T05:32:28.906Z,15.8
2018-12-18T05:33:31.327Z,15.9
2018-12-18T05:34:33.484Z,15.9
2018-12-18T05:35:35.652Z,15.8
2018-12-18T05:36:38.218Z,15.8
2018-12-18T05:37:40.086Z,15.7
2018-12-18T05:38:42.523Z,15.8
2018-12-18T05:39:45.017Z,15.8
2018-12-18T05:40:47.457Z,15.8
2018-12-18T05:41:49.903Z,15.9
2018-12-18T05:42:52.341Z,15.9
2018-12-18T05:43:54.215Z,15.8
2018-12-18T05:44:56.349Z,15.9
2018-12-18T05:45:58.782Z,15.8
2018-12-18T05:47:00.951Z,15.7
2018-12-18T05:48:03.103Z,15.8
2018-12-18T05:49:05.260Z,15.8
2018-12-18T05:50:07.402Z,15.8
2018-12-18T05:51:09.831Z,15.7
2018-12-18T05:52:11.735Z,15.8
2018-12-18T05:53:13.893Z,15.8
2018-12-18T05:54:16.043Z,15.8
2018-12-18T05:55:18.190Z,15.8
2018-12-18T05:56:20.363Z,15.8
2018-12-18T05:57:22.828Z,15.8
2018-12-18T05:58:25.054Z,15.8
2018-12-18T05:59:27.475Z,15.8
2018-12-18T06:00:29.667Z,15.8
2018-12-18T06:01:32.097Z,15.8
2018-12-18T06:02:34.541Z,15.7
2018-12-18T06:03:36.996Z,15.8
2018-12-18T06:04:39.415Z,15.7
2018-12-18T06:05:41.843Z,15.8
2018-12-18T06:06:44.311Z,15.8
2018-12-18T06:07:46.190Z,15.9
2018-12-18T06:08:48.341Z,15.8
2018-12-18T06:09:49.928Z,15.8
2018-12-18T06:10:52.085Z,15.8
2018-12-18T06:11:54.523Z,15.8
2018-12-18T06:12:56.963Z,15.8
2018-12-18T06:13:59.381Z,15.8
2018-12-18T06:15:01.821Z,15.8
2018-12-18T06:16:04.239Z,15.8
2018-12-18T06:17:06.386Z,15.8
2018-12-18T06:18:08.537Z,15.8
2018-12-18T06:19:10.961Z,15.7
2018-12-18T06:20:13.109Z,15.9
2018-12-18T06:21:15.289Z,15.8
2018-12-18T06:22:17.461Z,15.8
2018-12-18T06:23:19.878Z,15.8
2018-12-18T06:24:22.009Z,15.8
2018-12-18T06:25:24.438Z,15.8
2018-12-18T06:26:26.591Z,15.8
2018-12-18T06:27:29.030Z,15.8
2018-12-18T06:28:31.451Z,15.7
2018-12-18T06:29:33.630Z,15.8
2018-12-18T06:30:35.493Z,15.8
2018-12-18T06:31:37.923Z,15.7
2018-12-18T06:32:39.537Z,15.8
2018-12-18T06:33:41.422Z,15.7
2018-12-18T06:34:43.849Z,15.7
2018-12-18T06:35:45.994Z,15.7
2018-12-18T06:36:48.200Z,15.8
2018-12-18T06:37:50.368Z,15.7
2018-12-18T06:38:52.802Z,15.7
2018-12-18T06:39:55.239Z,15.8
2018-12-18T06:40:57.663Z,15.8
2018-12-18T06:41:59.823Z,15.7
2018-12-18T06:43:02.253Z,15.7
2018-12-18T06:44:04.680Z,15.7
2018-12-18T06:45:06.565Z,15.7
2018-12-18T06:46:09.004Z,15.8
2018-12-18T06:47:11.183Z,15.8
2018-12-18T06:48:13.624Z,15.8
2018-12-18T06:49:16.049Z,15.8
2018-12-18T06:50:18.483Z,15.7
2018-12-18T06:51:20.636Z,15.7
2018-12-18T06:52:22.771Z,15.8
2018-12-18T06:53:25.203Z,15.8
2018-12-18T06:54:27.382Z,15.8
2018-12-18T06:55:29.854Z,15.7
2018-12-18T06:56:32.039Z,15.8
2018-12-18T06:57:34.461Z,15.8
2018-12-18T06:58:36.593Z,15.8
2018-12-18T06:59:39.024Z,15.7
2018-12-18T07:00:40.894Z,15.8
2018-12-18T07:01:43.319Z,15.7
2018-12-18T07:02:45.474Z,15.7
2018-12-18T07:03:47.639Z,15.8
2018-12-18T07:04:49.792Z,15.7
2018-12-18T07:05:52.263Z,15.8
2018-12-18T07:06:54.403Z,15.7
2018-12-18T07:07:58.101Z,15.7
2018-12-18T07:08:59.989Z,15.6
2018-12-18T07:10:02.426Z,15.8
2018-12-18T07:11:04.843Z,15.7
2018-12-18T07:12:07.004Z,15.7
2018-12-18T07:13:09.442Z,15.7
2018-12-18T07:14:11.579Z,15.7
2018-12-18T07:15:13.735Z,15.7
2018-12-18T07:16:16.174Z,15.6
2018-12-18T07:17:18.320Z,15.7
2018-12-18T07:18:20.216Z,15.7
2018-12-18T07:19:22.652Z,15.8
2018-12-18T07:20:25.073Z,15.8
2018-12-18T07:21:26.933Z,15.7
2018-12-18T07:22:29.350Z,15.7
2018-12-18T07:23:31.220Z,15.7
2018-12-18T07:24:33.391Z,15.8
2018-12-18T07:25:35.812Z,15.8
2018-12-18T07:26:37.951Z,15.7
2018-12-18T07:27:40.393Z,15.7
2018-12-18T07:28:42.541Z,15.7
2018-12-18T07:29:44.975Z,15.7
2018-12-18T07:30:47.400Z,15.7
2018-12-18T07:31:49.293Z,15.7
2018-12-18T07:32:51.728Z,15.7
2018-12-18T07:33:54.155Z,15.7
2018-12-18T07:34:56.028Z,15.7
2018-12-18T07:35:58.186Z,15.8
2018-12-18T07:37:00.335Z,15.7
2018-12-18T07:38:02.228Z,15.7
2018-12-18T07:39:04.644Z,15.7
2018-12-18T07:40:06.795Z,15.8
2018-12-18T07:41:09.220Z,15.5
2018-12-18T07:42:11.096Z,15.6
2018-12-18T07:43:13.246Z,15.7
2018-12-18T07:44:15.394Z,15.7
2018-12-18T07:45:17.863Z,15.7
2018-12-18T07:46:19.767Z,15.6
2018-12-18T07:47:22.198Z,15.7
2018-12-18T07:48:24.652Z,15.7
2018-12-18T07:49:26.798Z,15.6
2018-12-18T07:50:29.228Z,15.7
2018-12-18T07:51:31.653Z,15.6
2018-12-18T07:52:33.810Z,15.8
2018-12-18T07:53:35.976Z,15.7
2018-12-18T07:54:38.125Z,15.7
2018-12-18T07:55:40.563Z,15.7
2018-12-18T07:56:42.444Z,15.8
2018-12-18T07:57:44.879Z,15.7
2018-12-18T07:58:47.304Z,15.5
2018-12-18T07:59:49.450Z,15.6
2018-12-18T08:00:51.875Z,15.7
2018-12-18T08:01:54.307Z,15.6
2018-12-18T08:02:56.728Z,15.7
2018-12-18T08:03:59.154Z,15.8
2018-12-18T08:05:01.070Z,15.7
2018-12-18T08:06:03.504Z,15.7
2018-12-18T08:07:05.931Z,15.7
2018-12-18T08:08:08.074Z,15.7
2018-12-18T08:09:09.959Z,15.5
2018-12-18T08:10:12.398Z,15.7
2018-12-18T08:11:14.544Z,15.7
2018-12-18T08:12:16.974Z,15.6
2018-12-18T08:13:19.394Z,15.7
2018-12-18T08:14:21.824Z,15.7
2018-12-18T08:15:24.252Z,15.8
2018-12-18T08:16:26.403Z,15.6
2018-12-18T08:17:28.284Z,15.7
2018-12-18T08:18:30.431Z,15.6
2018-12-18T08:19:32.856Z,15.6
2018-12-18T08:20:35.015Z,15.6
2018-12-18T08:21:37.174Z,15.6
2018-12-18T08:22:39.632Z,15.8
2018-12-18T08:23:41.226Z,15.7
2018-12-18T08:24:43.650Z,15.6
2018-12-18T08:25:45.810Z,15.7
2018-12-18T08:26:49.433Z,15.7
2018-12-18T08:27:51.620Z,15.6
2018-12-18T08:28:53.770Z,15.7
2018-12-18T08:29:56.204Z,15.7
2018-12-18T08:30:58.624Z,15.6
2018-12-18T08:32:00.504Z,15.6
2018-12-18T08:33:02.920Z,15.7
2018-12-18T08:34:05.089Z,15.6
2018-12-18T08:35:07.495Z,15.6
2018-12-18T08:36:09.920Z,15.6
2018-12-18T08:37:12.345Z,15.6
2018-12-18T08:38:14.765Z,15.7
2018-12-18T08:39:17.195Z,15.7
2018-12-18T08:40:19.642Z,15.6
2018-12-18T08:41:21.778Z,15.8
2018-12-18T08:42:23.692Z,15.8
2018-12-18T08:43:26.120Z,15.6
2018-12-18T08:44:28.556Z,15.7
2018-12-18T08:45:30.695Z,15.7
2018-12-18T08:46:33.112Z,15.7
2018-12-18T08:47:35.542Z,15.6
2018-12-18T08:48:37.962Z,15.5
2018-12-18T08:49:40.113Z,15.5
2018-12-18T08:50:42.264Z,15.4
2018-12-18T08:51:44.424Z,15.5
2018-12-18T08:52:46.587Z,15.5
2018-12-18T08:53:48.746Z,15.6
2018-12-18T08:54:51.162Z,15.7
2018-12-18T08:55:53.304Z,15.6
2018-12-18T08:56:55.468Z,15.5
2018-12-18T08:57:57.620Z,15.5
2018-12-18T08:59:00.095Z,15.6
2018-12-18T09:00:02.533Z,15.5
2018-12-18T09:02:36.436Z,15.6
2018-12-18T09:03:38.870Z,15.6
2018-12-18T09:04:41.013Z,15.5
2018-12-18T09:05:43.774Z,15.6
2018-12-18T09:06:46.200Z,15.6
2018-12-18T09:07:48.074Z,15.5
2018-12-18T09:08:50.492Z,15.6
2018-12-18T09:09:52.643Z,15.6
2018-12-18T09:10:54.812Z,15.5
2018-12-18T09:11:57.276Z,15.6
2018-12-18T09:12:59.705Z,15.7
2018-12-18T09:14:01.320Z,15.7
2018-12-18T09:15:03.222Z,15.5
2018-12-18T09:16:05.106Z,15.6
2018-12-18T09:17:07.526Z,15.5
2018-12-18T09:18:09.673Z,15.6
2018-12-18T09:19:12.099Z,15.7
2018-12-18T09:20:14.540Z,15.6
2018-12-18T09:22:48.732Z,15.6
2018-12-18T09:23:50.632Z,15.5
2018-12-18T09:24:53.061Z,15.5
2018-12-18T09:25:55.484Z,15.5
2018-12-18T09:26:58.010Z,15.6
2018-12-18T09:28:00.183Z,15.5
2018-12-18T09:29:02.345Z,15.5
2018-12-18T09:30:04.772Z,15.7
2018-12-18T09:31:07.203Z,15.5
2018-12-18T09:32:09.416Z,15.5
2018-12-18T09:33:11.840Z,15.6
2018-12-18T09:34:14.268Z,15.6
2018-12-18T09:35:16.422Z,15.6
2018-12-18T09:36:18.865Z,15.5
2018-12-18T09:37:20.747Z,15.6
2018-12-18T09:38:22.599Z,15.7
2018-12-18T09:39:24.770Z,15.6
2018-12-18T09:40:26.944Z,15.5
2018-12-18T09:41:29.124Z,15.6
2018-12-18T09:42:31.562Z,15.7
2018-12-18T09:43:33.463Z,15.6
2018-12-18T09:44:35.620Z,15.7
2018-12-18T09:45:38.048Z,15.5
2018-12-18T09:46:40.476Z,15.6
2018-12-18T09:47:42.646Z,15.5
2018-12-18T09:48:45.073Z,15.6
2018-12-18T09:49:47.504Z,15.6
2018-12-18T09:50:49.685Z,15.7
2018-12-18T09:51:52.170Z,15.7
2018-12-18T09:52:54.061Z,15.7
2018-12-18T09:53:56.227Z,15.6
2018-12-18T09:54:58.645Z,15.7
2018-12-18T09:56:00.800Z,15.6
2018-12-18T09:57:02.952Z,15.7
2018-12-18T09:58:05.161Z,15.6
2018-12-18T09:59:07.301Z,15.6
2018-12-18T10:00:09.738Z,15.5
2018-12-18T10:01:11.935Z,15.6
2018-12-18T10:02:14.369Z,15.4
2018-12-18T10:03:16.544Z,15.5
2018-12-18T10:04:18.966Z,15.7
2018-12-18T10:05:21.410Z,15.6
2018-12-18T10:06:23.573Z,15.7
2018-12-18T10:07:25.996Z,15.4
2018-12-18T10:08:28.152Z,15.7
2018-12-18T10:09:30.018Z,15.4
2018-12-18T10:10:31.906Z,15.7
2018-12-18T10:11:34.051Z,15.6
2018-12-18T10:12:36.478Z,15.6
2018-12-18T10:13:38.905Z,15.5
2018-12-18T10:14:41.342Z,15.5
2018-12-18T10:15:43.502Z,15.5
2018-12-18T10:16:45.938Z,15.5
2018-12-18T10:17:48.073Z,15.7
2018-12-18T10:18:50.237Z,15.6
2018-12-18T10:19:52.406Z,15.6
2018-12-18T10:20:54.560Z,15.5
2018-12-18T10:21:56.998Z,15.4
2018-12-18T10:22:59.435Z,15.6
2018-12-18T10:24:01.867Z,15.6
2018-12-18T10:25:04.291Z,15.6
2018-12-18T10:26:06.452Z,15.6
2018-12-18T10:27:08.600Z,15.6
2018-12-18T10:28:10.749Z,15.8
2018-12-18T10:29:13.172Z,15.6
2018-12-18T10:30:15.594Z,15.6
2018-12-18T10:31:18.024Z,15.5
2018-12-18T10:32:20.177Z,15.6
2018-12-18T10:33:22.602Z,15.7
2018-12-18T10:34:24.469Z,15.7
2018-12-18T10:35:26.355Z,15.5
2018-12-18T10:36:28.781Z,15.4
2018-12-18T10:37:31.203Z,15.5
2018-12-18T10:38:33.356Z,15.6
2018-12-18T10:39:35.505Z,15.4
2018-12-18T10:40:37.944Z,15.5
2018-12-18T10:41:40.071Z,15.5
2018-12-18T10:42:42.217Z,15.6
2018-12-18T10:43:44.374Z,15.4
2018-12-18T10:44:46.820Z,15.6
2018-12-18T10:45:49.254Z,15.6
2018-12-18T10:46:51.733Z,15.6
2018-12-18T10:47:53.885Z,15.5
2018-12-18T10:48:56.040Z,15.6
2018-12-18T10:49:58.185Z,15.7
2018-12-18T10:51:00.617Z,15.5
2018-12-18T10:52:03.046Z,15.7
2018-12-18T10:53:05.472Z,15.4
2018-12-18T10:54:07.620Z,15.5
2018-12-18T10:55:10.045Z,15.5
2018-12-18T10:56:12.470Z,15.7
2018-12-18T10:57:14.626Z,15.6
2018-12-18T10:58:23.773Z,15.5
2018-12-18T10:59:22.516Z,15.4
2018-12-18T11:00:24.955Z,15.5
2018-12-18T11:01:27.381Z,15.6
2018-12-18T11:02:29.542Z,15.6
2018-12-18T11:03:31.709Z,15.6
2018-12-18T11:04:34.152Z,15.5
2018-12-18T11:05:36.020Z,15.6
2018-12-18T11:06:38.185Z,15.6
2018-12-18T11:07:40.605Z,15.5
2018-12-18T11:08:43.033Z,15.5
2018-12-18T11:09:45.450Z,15.6
2018-12-18T11:10:47.882Z,15.6
2018-12-18T11:11:50.013Z,15.4
2018-12-18T11:12:52.158Z,15.5
2018-12-18T11:13:54.581Z,15.4
2018-12-18T11:14:56.745Z,15.6
2018-12-18T11:15:58.897Z,15.5
2018-12-18T11:17:01.046Z,15.5
2018-12-18T11:18:03.468Z,15.5
2018-12-18T11:19:05.354Z,15.5
2018-12-18T11:20:07.777Z,15.6
2018-12-18T11:21:09.934Z,15.5
2018-12-18T11:22:12.087Z,15.3
2018-12-18T11:23:14.250Z,15.6
2018-12-18T11:24:16.115Z,15.6
2018-12-18T11:25:18.003Z,15.6
2018-12-18T11:26:20.181Z,15.6
2018-12-18T11:27:22.361Z,15.4
2018-12-18T11:28:24.769Z,15.4
2018-12-18T11:29:26.913Z,15.5
2018-12-18T11:30:29.346Z,15.6
2018-12-18T11:31:31.240Z,15.6
2018-12-18T11:32:33.718Z,15.6
2018-12-18T11:33:36.192Z,15.4
2018-12-18T11:34:38.371Z,15.4
2018-12-18T11:35:40.802Z,15.4
2018-12-18T11:36:43.224Z,15.5
2018-12-18T11:37:45.662Z,15.5
2018-12-18T11:38:47.819Z,15.5
2018-12-18T11:39:50.027Z,15.4
2018-12-18T11:40:52.464Z,15.6
2018-12-18T11:41:54.617Z,15.5
2018-12-18T11:42:57.046Z,15.6
2018-12-18T11:43:59.219Z,15.6
2018-12-18T11:45:01.390Z,15.5
2018-12-18T11:46:03.523Z,15.6
2018-12-18T11:47:05.954Z,15.5
2018-12-18T11:48:07.843Z,15.4
2018-12-18T11:49:09.731Z,15.6
2018-12-18T11:50:11.890Z,15.5
2018-12-18T11:51:13.484Z,15.4
2018-12-18T11:52:15.642Z,15.5
2018-12-18T11:53:18.061Z,15.6
2018-12-18T11:54:20.501Z,15.4
2018-12-18T11:55:22.942Z,15.5
2018-12-18T11:56:25.373Z,15.5
2018-12-18T11:57:27.533Z,15.4
2018-12-18T11:58:29.695Z,15.5
2018-12-18T11:59:32.133Z,15.3
2018-12-18T12:00:34.545Z,15.5
2018-12-18T12:01:36.711Z,15.5
2018-12-18T12:03:44.122Z,15.5
2018-12-18T12:04:46.559Z,15.5
2018-12-18T12:05:48.695Z,15.5
2018-12-18T12:06:50.845Z,15.5
2018-12-18T12:07:53.283Z,15.5
2018-12-18T12:08:55.713Z,15.6
2018-12-18T12:09:57.873Z,15.4
2018-12-18T12:11:00.299Z,15.6
2018-12-18T12:12:02.453Z,15.4
2018-12-18T12:13:04.368Z,15.4
2018-12-18T12:14:06.804Z,15.5
2018-12-18T12:15:09.233Z,15.5
2018-12-18T12:16:11.661Z,15.6
2018-12-18T12:17:14.084Z,15.4
2018-12-18T12:18:16.513Z,15.5
2018-12-18T12:19:18.933Z,15.5
2018-12-18T12:20:21.398Z,15.5
2018-12-18T12:21:23.839Z,15.5
2018-12-18T12:22:26.271Z,15.5
2018-12-18T12:23:28.693Z,15.5
2018-12-18T12:24:31.133Z,15.5
2018-12-18T12:25:33.562Z,15.4
2018-12-18T12:26:35.423Z,15.6
2018-12-18T12:27:37.868Z,15.5
2018-12-18T12:28:40.292Z,15.5
2018-12-18T12:29:41.884Z,15.7
2018-12-18T12:30:44.044Z,15.5
2018-12-18T12:31:46.503Z,15.5
2018-12-18T12:32:48.922Z,15.6
2018-12-18T12:33:51.093Z,15.5
2018-12-18T12:34:53.539Z,15.4
2018-12-18T12:35:55.963Z,15.6
2018-12-18T12:36:58.390Z,15.5
2018-12-18T12:38:00.812Z,15.5
2018-12-18T12:39:03.241Z,15.6
2018-12-18T12:40:05.669Z,15.5
2018-12-18T12:41:07.823Z,15.6
2018-12-18T12:42:10.253Z,15.6
2018-12-18T12:43:12.682Z,15.5
2018-12-18T12:44:14.820Z,15.6
2018-12-18T12:45:17.242Z,15.6
2018-12-18T12:46:19.373Z,15.5
2018-12-18T12:47:21.530Z,15.4
2018-12-18T12:48:23.965Z,15.5
2018-12-18T12:49:26.388Z,15.3
2018-12-18T12:50:28.550Z,15.4
2018-12-18T12:51:30.720Z,15.4
2018-12-18T12:52:33.163Z,15.5
2018-12-18T12:53:35.303Z,15.4
2018-12-18T12:54:37.728Z,15.6
2018-12-18T12:55:39.896Z,15.2
2018-12-18T12:56:42.048Z,15.6
2018-12-18T12:57:44.203Z,15.5
2018-12-18T12:58:46.360Z,15.6
2018-12-18T12:59:48.802Z,15.7
2018-12-18T13:00:51.226Z,15.8
2018-12-18T13:01:53.650Z,15.4
2018-12-18T13:02:56.080Z,15.5
2018-12-18T13:03:58.234Z,15.5
2018-12-18T13:05:00.111Z,15.4
2018-12-18T13:06:02.540Z,15.5
2018-12-18T13:07:04.970Z,15.7
2018-12-18T13:08:07.142Z,15.7
2018-12-18T13:09:09.572Z,15.6
2018-12-18T13:10:12.008Z,15.6
2018-12-18T13:11:14.438Z,15.6
2018-12-18T13:12:16.320Z,15.5
2018-12-18T13:13:18.750Z,15.5
2018-12-18T13:14:21.182Z,15.4
2018-12-18T13:15:23.610Z,15.6
2018-12-18T13:16:25.762Z,15.5
2018-12-18T13:17:28.191Z,15.4
2018-12-18T13:18:30.332Z,15.5
2018-12-18T13:19:32.759Z,15.6
2018-12-18T13:20:34.924Z,15.4
2018-12-18T13:21:37.371Z,15.6
2018-12-18T13:22:39.531Z,15.6
2018-12-18T13:23:41.691Z,15.4
2018-12-18T13:24:44.114Z,15.4
2018-12-18T13:25:46.545Z,15.6
2018-12-18T13:26:48.427Z,15.5
2018-12-18T13:27:50.590Z,15.6
2018-12-18T13:28:52.740Z,15.5
2018-12-18T13:29:55.177Z,15.5
2018-12-18T13:30:57.601Z,15.5
2018-12-18T13:31:59.745Z,15.5
2018-12-18T13:33:01.880Z,15.4
2018-12-18T13:34:04.293Z,15.6
2018-12-18T13:35:06.447Z,15.4
2018-12-18T13:36:08.603Z,15.4
2018-12-18T13:37:10.771Z,15.7
2018-12-18T13:38:13.197Z,15.5
2018-12-18T13:39:15.618Z,15.6
2018-12-18T13:40:17.778Z,15.4
2018-12-18T13:41:19.930Z,15.5
2018-12-18T13:42:22.109Z,15.5
2018-12-18T13:43:24.584Z,15.5
2018-12-18T13:44:26.724Z,15.6
2018-12-18T13:45:29.161Z,15.4
2018-12-18T13:46:31.590Z,15.4
2018-12-18T13:47:34.012Z,15.7
2018-12-18T13:48:36.177Z,15.4
2018-12-18T13:49:38.313Z,15.5
2018-12-18T13:50:40.737Z,15.6
2018-12-18T13:51:43.168Z,15.6
2018-12-18T13:52:45.063Z,15.7
2018-12-18T13:53:47.221Z,15.5
2018-12-18T13:54:49.373Z,15.5
2018-12-18T13:55:51.543Z,15.5
2018-12-18T13:56:53.967Z,15.6